sensor_id;sensor_type;location;lat;lon;timestamp;temperature;humidity
21312;DHT22;18076;52.154;10.570;2023-07-13T00:01:44;16.40;99.90
21312;DHT22;18076;52.154;10.570;2023-07-13T00:04:11;16.40;99.90
21312;DHT22;18076;52.154;10.570;2023-07-13T00:06:37;16.40;99.90
21312;DHT22;18076;52.154;10.570;2023-07-13T00:09:02;16.50;99.90
21312;DHT22;18076;52.154;10.570;2023-07-13T00:11:28;16.50;99.90
21312;DHT22;18076;52.154;10.570;2023-07-13T00:13:54;16.60;99.90
21312;DHT22;18076;52.154;10.570;2023-07-13T00:16:19;16.60;99.90
21312;DHT22;18076;52.154;10.570;2023-07-13T00:18:45;16.70;99.90
21312;DHT22;18076;52.154;10.570;2023-07-13T00:21:11;16.70;99.90
21312;DHT22;18076;52.154;10.570;2023-07-13T00:23:39;16.80;99.90
21312;DHT22;18076;52.154;10.570;2023-07-13T00:26:05;16.80;99.90
21312;DHT22;18076;52.154;10.570;2023-07-13T00:28:31;16.80;99.90
21312;DHT22;18076;52.154;10.570;2023-07-13T00:30:57;16.80;99.90
21312;DHT22;18076;52.154;10.570;2023-07-13T00:33:22;16.80;99.90
21312;DHT22;18076;52.154;10.570;2023-07-13T00:35:48;16.80;99.90
21312;DHT22;18076;52.154;10.570;2023-07-13T00:38:14;16.80;99.90
21312;DHT22;18076;52.154;10.570;2023-07-13T00:40:40;16.80;99.90
21312;DHT22;18076;52.154;10.570;2023-07-13T00:43:16;16.80;99.90
21312;DHT22;18076;52.154;10.570;2023-07-13T00:48:07;16.80;99.90
21312;DHT22;18076;52.154;10.570;2023-07-13T00:50:33;16.80;99.90
21312;DHT22;18076;52.154;10.570;2023-07-13T00:52:59;16.80;99.90
21312;DHT22;18076;52.154;10.570;2023-07-13T00:55:24;16.70;99.90
21312;DHT22;18076;52.154;10.570;2023-07-13T00:57:50;16.70;99.90
21312;DHT22;18076;52.154;10.570;2023-07-13T01:00:15;16.70;99.90
21312;DHT22;18076;52.154;10.570;2023-07-13T01:02:42;16.70;99.90
21312;DHT22;18076;52.154;10.570;2023-07-13T01:05:19;16.70;99.90
21312;DHT22;18076;52.154;10.570;2023-07-13T01:07:45;16.70;99.90
21312;DHT22;18076;52.154;10.570;2023-07-13T01:10:12;16.70;99.90
21312;DHT22;18076;52.154;10.570;2023-07-13T01:12:38;16.70;99.90
21312;DHT22;18076;52.154;10.570;2023-07-13T01:15:04;16.60;99.90
21312;DHT22;18076;52.154;10.570;2023-07-13T01:17:29;16.60;99.90
21312;DHT22;18076;52.154;10.570;2023-07-13T01:19:56;16.60;99.90
21312;DHT22;18076;52.154;10.570;2023-07-13T01:22:21;16.50;99.90
21312;DHT22;18076;52.154;10.570;2023-07-13T01:24:50;16.60;99.90
21312;DHT22;18076;52.154;10.570;2023-07-13T01:27:19;16.60;99.90
21312;DHT22;18076;52.154;10.570;2023-07-13T01:29:45;16.50;99.90
21312;DHT22;18076;52.154;10.570;2023-07-13T01:32:17;16.40;99.90
21312;DHT22;18076;52.154;10.570;2023-07-13T01:34:46;16.40;99.90
21312;DHT22;18076;52.154;10.570;2023-07-13T01:37:12;16.40;99.90
21312;DHT22;18076;52.154;10.570;2023-07-13T01:39:38;16.30;99.90
21312;DHT22;18076;52.154;10.570;2023-07-13T01:42:03;16.30;99.90
21312;DHT22;18076;52.154;10.570;2023-07-13T01:44:29;16.30;99.90
21312;DHT22;18076;52.154;10.570;2023-07-13T01:46:56;16.30;99.90
21312;DHT22;18076;52.154;10.570;2023-07-13T01:49:21;16.20;99.90
21312;DHT22;18076;52.154;10.570;2023-07-13T01:51:47;16.30;99.90
21312;DHT22;18076;52.154;10.570;2023-07-13T01:54:12;16.30;99.90
21312;DHT22;18076;52.154;10.570;2023-07-13T01:56:38;16.30;99.90
21312;DHT22;18076;52.154;10.570;2023-07-13T01:59:05;16.30;99.90
21312;DHT22;18076;52.154;10.570;2023-07-13T02:01:30;16.30;99.90
21312;DHT22;18076;52.154;10.570;2023-07-13T02:03:56;16.30;99.90
21312;DHT22;18076;52.154;10.570;2023-07-13T02:06:21;16.40;99.90
21312;DHT22;18076;52.154;10.570;2023-07-13T02:08:47;16.40;99.90
21312;DHT22;18076;52.154;10.570;2023-07-13T02:11:12;16.40;99.90
21312;DHT22;18076;52.154;10.570;2023-07-13T02:13:38;16.30;99.90
21312;DHT22;18076;52.154;10.570;2023-07-13T02:16:03;16.40;99.90
21312;DHT22;18076;52.154;10.570;2023-07-13T02:18:29;16.30;99.90
21312;DHT22;18076;52.154;10.570;2023-07-13T02:20:54;16.30;99.90
21312;DHT22;18076;52.154;10.570;2023-07-13T02:23:20;16.40;99.90
21312;DHT22;18076;52.154;10.570;2023-07-13T02:25:45;16.40;99.90
21312;DHT22;18076;52.154;10.570;2023-07-13T02:28:11;16.40;99.90
21312;DHT22;18076;52.154;10.570;2023-07-13T02:30:36;16.40;99.90
21312;DHT22;18076;52.154;10.570;2023-07-13T02:33:03;16.50;99.90
21312;DHT22;18076;52.154;10.570;2023-07-13T02:35:29;16.40;99.90
21312;DHT22;18076;52.154;10.570;2023-07-13T02:37:54;16.40;99.90
21312;DHT22;18076;52.154;10.570;2023-07-13T02:40:20;16.40;99.90
21312;DHT22;18076;52.154;10.570;2023-07-13T02:42:45;16.40;99.90
21312;DHT22;18076;52.154;10.570;2023-07-13T02:45:11;16.50;99.90
21312;DHT22;18076;52.154;10.570;2023-07-13T02:47:39;16.50;99.90
21312;DHT22;18076;52.154;10.570;2023-07-13T02:50:05;16.50;99.90
21312;DHT22;18076;52.154;10.570;2023-07-13T02:52:30;16.50;99.90
21312;DHT22;18076;52.154;10.570;2023-07-13T02:54:56;16.50;99.90
21312;DHT22;18076;52.154;10.570;2023-07-13T02:57:22;16.50;99.90
21312;DHT22;18076;52.154;10.570;2023-07-13T02:59:47;16.50;99.90
21312;DHT22;18076;52.154;10.570;2023-07-13T03:02:13;16.50;99.90
21312;DHT22;18076;52.154;10.570;2023-07-13T03:04:38;16.50;99.90
21312;DHT22;18076;52.154;10.570;2023-07-13T03:07:06;16.40;99.90
21312;DHT22;18076;52.154;10.570;2023-07-13T03:09:34;16.40;99.90
21312;DHT22;18076;52.154;10.570;2023-07-13T03:12:00;16.20;99.90
21312;DHT22;18076;52.154;10.570;2023-07-13T03:14:26;16.10;99.90
21312;DHT22;18076;52.154;10.570;2023-07-13T03:16:51;16.10;99.90
21312;DHT22;18076;52.154;10.570;2023-07-13T03:19:17;16.00;99.90
21312;DHT22;18076;52.154;10.570;2023-07-13T03:21:43;16.00;99.90
21312;DHT22;18076;52.154;10.570;2023-07-13T03:24:08;15.90;99.90
21312;DHT22;18076;52.154;10.570;2023-07-13T03:26:34;15.90;99.90
21312;DHT22;18076;52.154;10.570;2023-07-13T03:28:59;15.80;99.90
21312;DHT22;18076;52.154;10.570;2023-07-13T03:31:25;15.70;99.90
21312;DHT22;18076;52.154;10.570;2023-07-13T03:33:53;15.50;99.90
21312;DHT22;18076;52.154;10.570;2023-07-13T03:36:20;15.40;99.90
21312;DHT22;18076;52.154;10.570;2023-07-13T03:38:47;15.30;99.90
21312;DHT22;18076;52.154;10.570;2023-07-13T03:41:13;15.20;99.90
21312;DHT22;18076;52.154;10.570;2023-07-13T03:43:39;15.20;99.90
21312;DHT22;18076;52.154;10.570;2023-07-13T03:46:04;15.20;99.90
21312;DHT22;18076;52.154;10.570;2023-07-13T03:48:30;15.30;99.90
21312;DHT22;18076;52.154;10.570;2023-07-13T03:50:55;15.30;99.90
21312;DHT22;18076;52.154;10.570;2023-07-13T03:53:21;15.30;99.90
21312;DHT22;18076;52.154;10.570;2023-07-13T03:55:46;15.30;99.90
21312;DHT22;18076;52.154;10.570;2023-07-13T03:58:26;15.40;99.90
21312;DHT22;18076;52.154;10.570;2023-07-13T04:00:52;15.40;99.90
21312;DHT22;18076;52.154;10.570;2023-07-13T04:03:17;15.50;99.90
21312;DHT22;18076;52.154;10.570;2023-07-13T04:05:43;15.60;99.90
21312;DHT22;18076;52.154;10.570;2023-07-13T04:08:09;15.70;99.90
21312;DHT22;18076;52.154;10.570;2023-07-13T04:10:34;15.70;99.90
21312;DHT22;18076;52.154;10.570;2023-07-13T04:13:00;15.80;99.90
21312;DHT22;18076;52.154;10.570;2023-07-13T04:15:27;15.90;99.90
21312;DHT22;18076;52.154;10.570;2023-07-13T04:17:53;15.90;99.90
21312;DHT22;18076;52.154;10.570;2023-07-13T04:20:18;15.90;99.90
21312;DHT22;18076;52.154;10.570;2023-07-13T04:22:45;15.80;99.90
21312;DHT22;18076;52.154;10.570;2023-07-13T04:25:11;15.80;99.90
21312;DHT22;18076;52.154;10.570;2023-07-13T04:27:36;15.70;99.90
21312;DHT22;18076;52.154;10.570;2023-07-13T04:30:05;15.70;99.90
21312;DHT22;18076;52.154;10.570;2023-07-13T04:32:30;15.70;99.90
21312;DHT22;18076;52.154;10.570;2023-07-13T04:34:57;15.70;99.90
21312;DHT22;18076;52.154;10.570;2023-07-13T04:37:24;15.80;99.90
21312;DHT22;18076;52.154;10.570;2023-07-13T04:39:50;15.90;99.90
21312;DHT22;18076;52.154;10.570;2023-07-13T04:42:16;16.00;99.90
21312;DHT22;18076;52.154;10.570;2023-07-13T04:44:41;16.00;99.90
21312;DHT22;18076;52.154;10.570;2023-07-13T04:47:07;16.00;99.90
21312;DHT22;18076;52.154;10.570;2023-07-13T04:49:32;16.10;99.90
21312;DHT22;18076;52.154;10.570;2023-07-13T04:51:58;16.10;99.90
21312;DHT22;18076;52.154;10.570;2023-07-13T04:54:23;16.20;99.90
21312;DHT22;18076;52.154;10.570;2023-07-13T04:56:49;16.20;99.90
21312;DHT22;18076;52.154;10.570;2023-07-13T04:59:14;16.30;99.90
21312;DHT22;18076;52.154;10.570;2023-07-13T05:01:40;16.30;99.90
21312;DHT22;18076;52.154;10.570;2023-07-13T05:04:06;16.20;99.90
21312;DHT22;18076;52.154;10.570;2023-07-13T05:06:32;16.30;99.90
21312;DHT22;18076;52.154;10.570;2023-07-13T05:08:57;16.40;99.90
21312;DHT22;18076;52.154;10.570;2023-07-13T05:11:23;16.50;99.90
21312;DHT22;18076;52.154;10.570;2023-07-13T05:13:49;16.60;99.90
21312;DHT22;18076;52.154;10.570;2023-07-13T05:16:14;16.70;99.90
21312;DHT22;18076;52.154;10.570;2023-07-13T05:18:40;16.90;99.90
21312;DHT22;18076;52.154;10.570;2023-07-13T05:21:06;17.00;99.90
21312;DHT22;18076;52.154;10.570;2023-07-13T05:23:33;17.10;99.90
21312;DHT22;18076;52.154;10.570;2023-07-13T05:25:58;17.40;99.90
21312;DHT22;18076;52.154;10.570;2023-07-13T05:28:25;17.50;99.90
21312;DHT22;18076;52.154;10.570;2023-07-13T05:30:50;17.70;99.90
21312;DHT22;18076;52.154;10.570;2023-07-13T05:33:16;17.90;99.90
21312;DHT22;18076;52.154;10.570;2023-07-13T05:35:41;18.10;99.90
21312;DHT22;18076;52.154;10.570;2023-07-13T05:38:07;18.30;99.90
21312;DHT22;18076;52.154;10.570;2023-07-13T05:40:32;18.50;99.90
21312;DHT22;18076;52.154;10.570;2023-07-13T05:42:58;18.80;99.90
21312;DHT22;18076;52.154;10.570;2023-07-13T05:45:24;18.90;99.90
21312;DHT22;18076;52.154;10.570;2023-07-13T05:47:49;19.10;99.90
21312;DHT22;18076;52.154;10.570;2023-07-13T05:50:15;19.30;99.90
21312;DHT22;18076;52.154;10.570;2023-07-13T05:52:40;19.60;99.90
21312;DHT22;18076;52.154;10.570;2023-07-13T05:55:06;19.80;99.90
21312;DHT22;18076;52.154;10.570;2023-07-13T05:57:32;20.00;99.90
21312;DHT22;18076;52.154;10.570;2023-07-13T05:59:59;20.20;99.90
21312;DHT22;18076;52.154;10.570;2023-07-13T06:02:24;20.30;99.90
21312;DHT22;18076;52.154;10.570;2023-07-13T06:04:51;20.30;99.90
21312;DHT22;18076;52.154;10.570;2023-07-13T06:07:17;20.30;99.90
21312;DHT22;18076;52.154;10.570;2023-07-13T06:09:42;20.40;99.90
21312;DHT22;18076;52.154;10.570;2023-07-13T06:12:08;20.50;99.90
21312;DHT22;18076;52.154;10.570;2023-07-13T06:14:34;20.60;99.90
21312;DHT22;18076;52.154;10.570;2023-07-13T06:17:00;20.80;99.90
21312;DHT22;18076;52.154;10.570;2023-07-13T06:19:25;21.00;99.90
21312;DHT22;18076;52.154;10.570;2023-07-13T06:21:51;20.90;99.90
21312;DHT22;18076;52.154;10.570;2023-07-13T06:24:16;20.90;99.90
21312;DHT22;18076;52.154;10.570;2023-07-13T06:26:42;20.90;99.90
21312;DHT22;18076;52.154;10.570;2023-07-13T06:29:07;21.00;99.90
21312;DHT22;18076;52.154;10.570;2023-07-13T06:31:33;20.80;99.90
21312;DHT22;18076;52.154;10.570;2023-07-13T06:33:58;20.70;99.90
21312;DHT22;18076;52.154;10.570;2023-07-13T06:36:24;20.60;99.90
21312;DHT22;18076;52.154;10.570;2023-07-13T06:38:49;20.60;99.90
21312;DHT22;18076;52.154;10.570;2023-07-13T06:41:15;20.40;99.90
21312;DHT22;18076;52.154;10.570;2023-07-13T06:43:40;20.40;99.90
21312;DHT22;18076;52.154;10.570;2023-07-13T06:46:06;20.40;99.90
21312;DHT22;18076;52.154;10.570;2023-07-13T06:48:32;20.30;99.90
21312;DHT22;18076;52.154;10.570;2023-07-13T06:50:57;20.10;99.90
21312;DHT22;18076;52.154;10.570;2023-07-13T06:53:23;20.00;99.90
21312;DHT22;18076;52.154;10.570;2023-07-13T06:55:48;20.10;99.90
21312;DHT22;18076;52.154;10.570;2023-07-13T06:58:15;20.40;99.90
21312;DHT22;18076;52.154;10.570;2023-07-13T07:00:40;20.70;99.90
21312;DHT22;18076;52.154;10.570;2023-07-13T07:03:06;21.10;99.90
21312;DHT22;18076;52.154;10.570;2023-07-13T07:05:32;21.40;99.90
21312;DHT22;18076;52.154;10.570;2023-07-13T07:07:58;21.60;99.90
21312;DHT22;18076;52.154;10.570;2023-07-13T07:10:23;21.70;99.90
21312;DHT22;18076;52.154;10.570;2023-07-13T07:12:49;21.40;99.90
21312;DHT22;18076;52.154;10.570;2023-07-13T07:15:14;21.10;99.90
21312;DHT22;18076;52.154;10.570;2023-07-13T07:17:40;20.90;99.90
21312;DHT22;18076;52.154;10.570;2023-07-13T07:20:06;21.10;99.90
21312;DHT22;18076;52.154;10.570;2023-07-13T07:22:32;21.40;99.90
21312;DHT22;18076;52.154;10.570;2023-07-13T07:24:58;21.60;99.90
21312;DHT22;18076;52.154;10.570;2023-07-13T07:27:24;21.80;99.90
21312;DHT22;18076;52.154;10.570;2023-07-13T07:29:49;22.40;99.90
21312;DHT22;18076;52.154;10.570;2023-07-13T07:32:15;22.80;99.90
21312;DHT22;18076;52.154;10.570;2023-07-13T07:34:40;22.50;99.90
21312;DHT22;18076;52.154;10.570;2023-07-13T07:37:06;22.00;99.90
21312;DHT22;18076;52.154;10.570;2023-07-13T07:39:31;21.80;99.90
21312;DHT22;18076;52.154;10.570;2023-07-13T07:41:57;21.70;99.90
21312;DHT22;18076;52.154;10.570;2023-07-13T07:44:23;21.60;99.90
21312;DHT22;18076;52.154;10.570;2023-07-13T07:46:48;21.70;99.90
21312;DHT22;18076;52.154;10.570;2023-07-13T07:49:14;21.90;99.90
21312;DHT22;18076;52.154;10.570;2023-07-13T07:51:40;22.30;99.90
21312;DHT22;18076;52.154;10.570;2023-07-13T07:54:06;22.50;99.90
21312;DHT22;18076;52.154;10.570;2023-07-13T07:56:32;22.50;99.90
21312;DHT22;18076;52.154;10.570;2023-07-13T07:58:57;22.50;99.90
21312;DHT22;18076;52.154;10.570;2023-07-13T08:01:23;22.30;99.90
21312;DHT22;18076;52.154;10.570;2023-07-13T08:03:49;22.30;99.90
21312;DHT22;18076;52.154;10.570;2023-07-13T08:06:14;22.20;99.90
21312;DHT22;18076;52.154;10.570;2023-07-13T08:08:40;22.30;99.90
21312;DHT22;18076;52.154;10.570;2023-07-13T08:11:06;22.60;99.90
21312;DHT22;18076;52.154;10.570;2023-07-13T08:13:32;23.00;99.90
21312;DHT22;18076;52.154;10.570;2023-07-13T08:15:58;23.10;99.90
21312;DHT22;18076;52.154;10.570;2023-07-13T08:18:24;22.90;99.90
21312;DHT22;18076;52.154;10.570;2023-07-13T08:20:50;23.10;99.90
21312;DHT22;18076;52.154;10.570;2023-07-13T08:23:15;23.10;99.90
21312;DHT22;18076;52.154;10.570;2023-07-13T08:25:42;23.00;99.90
21312;DHT22;18076;52.154;10.570;2023-07-13T08:28:07;22.80;99.90
21312;DHT22;18076;52.154;10.570;2023-07-13T08:30:33;22.60;99.90
21312;DHT22;18076;52.154;10.570;2023-07-13T08:32:58;22.50;99.90
21312;DHT22;18076;52.154;10.570;2023-07-13T08:35:24;22.70;99.90
21312;DHT22;18076;52.154;10.570;2023-07-13T08:37:51;22.80;99.90
21312;DHT22;18076;52.154;10.570;2023-07-13T08:40:16;22.70;99.90
21312;DHT22;18076;52.154;10.570;2023-07-13T08:42:46;22.70;99.90
21312;DHT22;18076;52.154;10.570;2023-07-13T08:48:13;23.00;99.90
21312;DHT22;18076;52.154;10.570;2023-07-13T08:50:42;23.40;99.90
21312;DHT22;18076;52.154;10.570;2023-07-13T08:53:12;23.30;99.90
21312;DHT22;18076;52.154;10.570;2023-07-13T08:55:38;23.30;99.90
21312;DHT22;18076;52.154;10.570;2023-07-13T09:03:24;23.30;99.90
21312;DHT22;18076;52.154;10.570;2023-07-13T09:05:53;23.10;99.90
21312;DHT22;18076;52.154;10.570;2023-07-13T09:08:38;22.60;99.90
21312;DHT22;18076;52.154;10.570;2023-07-13T09:16:15;22.30;99.90
21312;DHT22;18076;52.154;10.570;2023-07-13T09:18:42;22.40;99.90
21312;DHT22;18076;52.154;10.570;2023-07-13T09:21:16;22.40;99.90
21312;DHT22;18076;52.154;10.570;2023-07-13T09:23:44;22.60;99.90
21312;DHT22;18076;52.154;10.570;2023-07-13T09:26:14;22.60;99.90
21312;DHT22;18076;52.154;10.570;2023-07-13T09:28:51;22.80;99.90
21312;DHT22;18076;52.154;10.570;2023-07-13T09:31:26;22.90;99.90
21312;DHT22;18076;52.154;10.570;2023-07-13T09:33:55;23.00;99.90
21312;DHT22;18076;52.154;10.570;2023-07-13T09:36:24;23.10;99.90
21312;DHT22;18076;52.154;10.570;2023-07-13T09:41:34;23.10;99.90
21312;DHT22;18076;52.154;10.570;2023-07-13T09:44:08;23.50;99.90
21312;DHT22;18076;52.154;10.570;2023-07-13T09:46:37;24.10;99.90
21312;DHT22;18076;52.154;10.570;2023-07-13T09:49:03;24.60;99.90
21312;DHT22;18076;52.154;10.570;2023-07-13T09:51:28;24.60;99.90
21312;DHT22;18076;52.154;10.570;2023-07-13T09:53:54;24.20;99.90
21312;DHT22;18076;52.154;10.570;2023-07-13T09:56:20;24.10;99.90
21312;DHT22;18076;52.154;10.570;2023-07-13T09:58:47;24.00;99.90
21312;DHT22;18076;52.154;10.570;2023-07-13T10:01:12;24.40;99.90
21312;DHT22;18076;52.154;10.570;2023-07-13T10:03:39;24.20;99.90
21312;DHT22;18076;52.154;10.570;2023-07-13T10:06:17;23.70;99.90
21312;DHT22;18076;52.154;10.570;2023-07-13T10:08:44;24.10;99.90
21312;DHT22;18076;52.154;10.570;2023-07-13T10:11:14;24.70;99.90
21312;DHT22;18076;52.154;10.570;2023-07-13T10:13:46;24.70;99.90
21312;DHT22;18076;52.154;10.570;2023-07-13T10:16:14;24.60;99.90
21312;DHT22;18076;52.154;10.570;2023-07-13T10:21:18;23.80;99.90
21312;DHT22;18076;52.154;10.570;2023-07-13T10:23:56;23.30;99.90
21312;DHT22;18076;52.154;10.570;2023-07-13T10:26:26;23.20;99.90
21312;DHT22;18076;52.154;10.570;2023-07-13T10:28:56;23.70;99.90
21312;DHT22;18076;52.154;10.570;2023-07-13T10:31:24;24.00;99.90
21312;DHT22;18076;52.154;10.570;2023-07-13T10:33:50;24.30;99.90
21312;DHT22;18076;52.154;10.570;2023-07-13T10:36:39;24.30;99.90
21312;DHT22;18076;52.154;10.570;2023-07-13T10:39:03;23.80;99.90
21312;DHT22;18076;52.154;10.570;2023-07-13T10:41:30;23.50;99.90
21312;DHT22;18076;52.154;10.570;2023-07-13T10:43:56;23.60;99.90
21312;DHT22;18076;52.154;10.570;2023-07-13T10:46:23;24.00;99.90
21312;DHT22;18076;52.154;10.570;2023-07-13T10:48:55;24.30;99.90
21312;DHT22;18076;52.154;10.570;2023-07-13T10:51:22;24.00;99.90
21312;DHT22;18076;52.154;10.570;2023-07-13T10:53:48;23.40;99.90
21312;DHT22;18076;52.154;10.570;2023-07-13T10:56:33;23.20;99.90
21312;DHT22;18076;52.154;10.570;2023-07-13T10:59:09;23.60;99.90
21312;DHT22;18076;52.154;10.570;2023-07-13T11:02:26;23.80;99.90
21312;DHT22;18076;52.154;10.570;2023-07-13T11:04:26;24.00;99.90
21312;DHT22;18076;52.154;10.570;2023-07-13T11:07:09;24.30;99.90
21312;DHT22;18076;52.154;10.570;2023-07-13T11:09:38;24.80;99.90
21312;DHT22;18076;52.154;10.570;2023-07-13T11:12:09;24.80;99.90
21312;DHT22;18076;52.154;10.570;2023-07-13T11:15:26;24.80;99.90
21312;DHT22;18076;52.154;10.570;2023-07-13T11:17:29;25.20;99.90
21312;DHT22;18076;52.154;10.570;2023-07-13T11:20:32;25.10;99.90
21312;DHT22;18076;52.154;10.570;2023-07-13T11:22:51;25.10;99.90
21312;DHT22;18076;52.154;10.570;2023-07-13T11:27:46;25.80;99.80
21312;DHT22;18076;52.154;10.570;2023-07-13T11:33:10;25.70;98.80
21312;DHT22;18076;52.154;10.570;2023-07-13T11:35:40;25.80;98.50
21312;DHT22;18076;52.154;10.570;2023-07-13T11:38:19;25.80;97.70
21312;DHT22;18076;52.154;10.570;2023-07-13T11:40:46;25.30;98.40
21312;DHT22;18076;52.154;10.570;2023-07-13T11:43:15;25.40;98.60
21312;DHT22;18076;52.154;10.570;2023-07-13T11:45:42;25.80;98.90
21312;DHT22;18076;52.154;10.570;2023-07-13T11:51:04;25.90;97.50
21312;DHT22;18076;52.154;10.570;2023-07-13T11:53:36;25.70;97.50
21312;DHT22;18076;52.154;10.570;2023-07-13T11:56:03;25.60;98.50
21312;DHT22;18076;52.154;10.570;2023-07-13T11:58:29;25.70;98.00
21312;DHT22;18076;52.154;10.570;2023-07-13T12:00:55;25.80;97.60
21312;DHT22;18076;52.154;10.570;2023-07-13T12:03:23;26.10;97.10
21312;DHT22;18076;52.154;10.570;2023-07-13T12:05:57;26.00;95.70
21312;DHT22;18076;52.154;10.570;2023-07-13T12:08:23;25.90;96.40
21312;DHT22;18076;52.154;10.570;2023-07-13T12:10:55;25.90;96.80
21312;DHT22;18076;52.154;10.570;2023-07-13T12:13:21;26.20;97.40
21312;DHT22;18076;52.154;10.570;2023-07-13T12:15:46;26.20;96.30
21312;DHT22;18076;52.154;10.570;2023-07-13T12:18:15;26.60;95.30
21312;DHT22;18076;52.154;10.570;2023-07-13T12:20:41;27.00;96.00
21312;DHT22;18076;52.154;10.570;2023-07-13T12:23:50;26.80;94.50
21312;DHT22;18076;52.154;10.570;2023-07-13T12:25:58;26.20;94.10
21312;DHT22;18076;52.154;10.570;2023-07-13T12:31:00;25.80;93.90
21312;DHT22;18076;52.154;10.570;2023-07-13T12:33:29;25.80;94.30
21312;DHT22;18076;52.154;10.570;2023-07-13T12:36:00;25.70;94.00
21312;DHT22;18076;52.154;10.570;2023-07-13T12:38:27;25.40;94.40
21312;DHT22;18076;52.154;10.570;2023-07-13T12:40:53;25.30;95.30
21312;DHT22;18076;52.154;10.570;2023-07-13T12:43:22;25.30;95.50
21312;DHT22;18076;52.154;10.570;2023-07-13T12:48:21;25.50;95.30
21312;DHT22;18076;52.154;10.570;2023-07-13T12:50:47;25.60;95.80
21312;DHT22;18076;52.154;10.570;2023-07-13T12:53:14;25.90;95.40
21312;DHT22;18076;52.154;10.570;2023-07-13T12:55:49;26.00;95.30
21312;DHT22;18076;52.154;10.570;2023-07-13T12:58:20;25.80;94.30
21312;DHT22;18076;52.154;10.570;2023-07-13T13:00:50;25.30;93.60
21312;DHT22;18076;52.154;10.570;2023-07-13T13:06:05;25.00;94.80
21312;DHT22;18076;52.154;10.570;2023-07-13T13:08:32;25.30;94.90
21312;DHT22;18076;52.154;10.570;2023-07-13T13:10:58;25.30;94.80
21312;DHT22;18076;52.154;10.570;2023-07-13T13:13:28;25.20;94.80
21312;DHT22;18076;52.154;10.570;2023-07-13T13:16:01;24.90;95.40
21312;DHT22;18076;52.154;10.570;2023-07-13T13:18:26;24.80;95.70
21312;DHT22;18076;52.154;10.570;2023-07-13T13:20:52;24.80;95.50
21312;DHT22;18076;52.154;10.570;2023-07-13T13:23:19;24.80;96.00
21312;DHT22;18076;52.154;10.570;2023-07-13T13:25:45;24.90;94.50
21312;DHT22;18076;52.154;10.570;2023-07-13T13:28:15;24.90;94.80
21312;DHT22;18076;52.154;10.570;2023-07-13T13:30:42;25.20;94.60
21312;DHT22;18076;52.154;10.570;2023-07-13T13:33:12;25.40;94.90
21312;DHT22;18076;52.154;10.570;2023-07-13T13:35:40;25.90;93.90
21312;DHT22;18076;52.154;10.570;2023-07-13T13:38:10;26.10;93.10
21312;DHT22;18076;52.154;10.570;2023-07-13T13:40:36;26.20;93.30
21312;DHT22;18076;52.154;10.570;2023-07-13T13:43:01;26.00;91.70
21312;DHT22;18076;52.154;10.570;2023-07-13T13:45:27;25.60;92.20
21312;DHT22;18076;52.154;10.570;2023-07-13T13:47:53;25.50;92.40
21312;DHT22;18076;52.154;10.570;2023-07-13T13:50:20;25.70;93.50
21312;DHT22;18076;52.154;10.570;2023-07-13T13:52:47;26.00;93.90
21312;DHT22;18076;52.154;10.570;2023-07-13T13:55:18;26.50;94.50
21312;DHT22;18076;52.154;10.570;2023-07-13T13:57:47;26.30;92.60
21312;DHT22;18076;52.154;10.570;2023-07-13T14:00:13;25.80;92.10
21312;DHT22;18076;52.154;10.570;2023-07-13T14:02:46;25.60;93.30
21312;DHT22;18076;52.154;10.570;2023-07-13T14:05:13;25.20;93.40
21312;DHT22;18076;52.154;10.570;2023-07-13T14:07:40;25.00;93.80
21312;DHT22;18076;52.154;10.570;2023-07-13T14:10:10;25.00;94.10
21312;DHT22;18076;52.154;10.570;2023-07-13T14:12:36;25.10;94.30
21312;DHT22;18076;52.154;10.570;2023-07-13T14:15:01;25.30;94.60
21312;DHT22;18076;52.154;10.570;2023-07-13T14:17:27;25.50;94.90
21312;DHT22;18076;52.154;10.570;2023-07-13T14:19:53;25.80;94.90
21312;DHT22;18076;52.154;10.570;2023-07-13T14:22:25;25.70;93.80
21312;DHT22;18076;52.154;10.570;2023-07-13T14:24:52;25.80;94.30
21312;DHT22;18076;52.154;10.570;2023-07-13T14:27:18;26.00;94.40
21312;DHT22;18076;52.154;10.570;2023-07-13T14:29:44;25.90;93.60
21312;DHT22;18076;52.154;10.570;2023-07-13T14:32:10;25.70;93.80
21312;DHT22;18076;52.154;10.570;2023-07-13T14:34:38;25.70;94.20
21312;DHT22;18076;52.154;10.570;2023-07-13T14:37:05;26.00;93.80
21312;DHT22;18076;52.154;10.570;2023-07-13T14:39:37;26.30;92.80
21312;DHT22;18076;52.154;10.570;2023-07-13T14:42:03;26.10;92.20
21312;DHT22;18076;52.154;10.570;2023-07-13T14:44:29;25.90;92.20
21312;DHT22;18076;52.154;10.570;2023-07-13T14:46:56;25.50;92.30
21312;DHT22;18076;52.154;10.570;2023-07-13T14:49:35;25.60;92.50
21312;DHT22;18076;52.154;10.570;2023-07-13T14:52:03;25.80;92.70
21312;DHT22;18076;52.154;10.570;2023-07-13T14:54:30;25.70;93.60
21312;DHT22;18076;52.154;10.570;2023-07-13T14:56:56;25.30;93.80
21312;DHT22;18076;52.154;10.570;2023-07-13T14:59:21;24.70;94.60
21312;DHT22;18076;52.154;10.570;2023-07-13T15:01:48;24.10;95.90
21312;DHT22;18076;52.154;10.570;2023-07-13T15:04:14;23.30;97.00
21312;DHT22;18076;52.154;10.570;2023-07-13T15:09:40;22.80;99.20
21312;DHT22;18076;52.154;10.570;2023-07-13T15:12:06;22.50;99.90
21312;DHT22;18076;52.154;10.570;2023-07-13T15:14:33;22.10;99.90
21312;DHT22;18076;52.154;10.570;2023-07-13T15:16:59;21.90;99.90
21312;DHT22;18076;52.154;10.570;2023-07-13T15:19:25;21.70;99.90
21312;DHT22;18076;52.154;10.570;2023-07-13T15:21:51;21.40;99.90
21312;DHT22;18076;52.154;10.570;2023-07-13T15:24:19;21.10;99.90
21312;DHT22;18076;52.154;10.570;2023-07-13T15:26:47;20.60;99.90
21312;DHT22;18076;52.154;10.570;2023-07-13T15:29:15;20.20;99.90
21312;DHT22;18076;52.154;10.570;2023-07-13T15:31:41;19.90;99.90
21312;DHT22;18076;52.154;10.570;2023-07-13T15:34:17;19.80;99.90
21312;DHT22;18076;52.154;10.570;2023-07-13T15:36:44;19.70;99.90
21312;DHT22;18076;52.154;10.570;2023-07-13T15:39:18;19.80;99.90
21312;DHT22;18076;52.154;10.570;2023-07-13T15:41:45;20.10;99.90
21312;DHT22;18076;52.154;10.570;2023-07-13T15:44:20;20.30;99.90
21312;DHT22;18076;52.154;10.570;2023-07-13T15:46:46;20.30;99.90
21312;DHT22;18076;52.154;10.570;2023-07-13T15:49:11;20.20;99.90
21312;DHT22;18076;52.154;10.570;2023-07-13T15:51:37;20.20;99.90
21312;DHT22;18076;52.154;10.570;2023-07-13T15:54:03;20.40;99.90
21312;DHT22;18076;52.154;10.570;2023-07-13T15:56:34;20.20;99.90